Varna, Bulgaria
Current Conditions -  °F | °C
As of 1:00 AM on Friday 19 Dec 2014 (Local Time) from LBWN Reporting Station
Moderate Fog Moderate Fog  
Wind Chill: 32°   Ceiling: Unl
Heat Index: 36°   Visibility: 0.37mi
Dew Point: 36°   Wind: 5mph
Humidity: 100%   Direction: 280°W
Pressure: 30.12"   Gusts: NA
Location:  43.21°N, 27.9°E
Report Text: LBWN 182200Z 28004KT 250V310 0600 R09/1600U FG SCT001 SCT006 02/02 Q1020 NOSIG
Loading
Personal Weather Stations






























Interactive Weather Map New forecast layout! Learn more

10-Day Weather Forecast

Advertisements
Track Severe Weather on mobile